createdAt,value
2017-12-29T00:00:36.602Z,3.33
2017-12-29T00:03:03.132Z,2.73
2017-12-29T00:05:29.347Z,2.80
2017-12-29T00:07:55.497Z,2.90
2017-12-29T00:10:21.763Z,2.73
2017-12-29T00:12:48.741Z,2.33
2017-12-29T00:15:14.984Z,2.67
2017-12-29T00:17:41.209Z,2.50
2017-12-29T00:20:07.433Z,2.67
2017-12-29T00:22:33.640Z,2.63
2017-12-29T00:24:59.857Z,3.10
2017-12-29T00:27:26.090Z,2.40
2017-12-29T00:29:52.262Z,2.70
2017-12-29T00:32:18.673Z,2.80
2017-12-29T00:34:44.895Z,2.50
2017-12-29T00:37:11.049Z,2.90
2017-12-29T00:39:37.269Z,2.47
2017-12-29T00:42:03.455Z,2.70
2017-12-29T00:44:29.571Z,2.30
2017-12-29T00:46:56.137Z,2.73
2017-12-29T00:49:22.409Z,2.50
2017-12-29T00:51:49.283Z,2.40
2017-12-29T00:54:15.652Z,2.77
2017-12-29T00:56:41.885Z,2.47
2017-12-29T00:59:08.107Z,2.57
2017-12-29T01:01:34.367Z,3.00
2017-12-29T01:04:01.401Z,2.77
2017-12-29T01:06:28.401Z,2.70
2017-12-29T01:08:54.662Z,3.17
2017-12-29T01:11:20.932Z,3.40
2017-12-29T01:13:47.159Z,4.50
2017-12-29T01:16:13.335Z,4.10
2017-12-29T01:18:39.570Z,4.20
2017-12-29T01:21:05.792Z,7.00
2017-12-29T01:23:31.995Z,12.10
2017-12-29T01:25:58.312Z,7.90
2017-12-29T01:28:24.607Z,6.20
2017-12-29T01:30:50.868Z,6.13
2017-12-29T01:33:17.180Z,5.57
2017-12-29T01:35:43.435Z,4.70
2017-12-29T01:38:09.758Z,3.30
2017-12-29T01:40:35.894Z,5.67
2017-12-29T01:43:02.144Z,5.80
2017-12-29T01:45:28.395Z,4.13
2017-12-29T01:47:57.038Z,3.40
2017-12-29T01:50:23.263Z,4.30
2017-12-29T01:52:51.209Z,3.97
2017-12-29T01:55:17.500Z,3.60
2017-12-29T01:57:44.402Z,3.07
2017-12-29T02:00:10.563Z,2.50
2017-12-29T02:02:37.511Z,2.87
2017-12-29T02:05:04.419Z,2.07
2017-12-29T02:07:30.660Z,2.40
2017-12-29T02:09:57.643Z,2.50
2017-12-29T02:12:23.918Z,2.80
2017-12-29T02:14:50.159Z,2.87
2017-12-29T02:17:17.108Z,2.60
2017-12-29T02:19:44.057Z,2.60
2017-12-29T02:22:11.084Z,2.40
2017-12-29T02:24:37.285Z,2.33
2017-12-29T02:27:03.563Z,2.87
2017-12-29T02:29:30.477Z,2.27
2017-12-29T02:31:56.697Z,2.10
2017-12-29T02:34:22.933Z,2.20
2017-12-29T02:36:49.268Z,2.10
2017-12-29T02:39:15.452Z,1.87
2017-12-29T02:41:41.803Z,2.30
2017-12-29T02:44:08.066Z,2.33
2017-12-29T02:46:34.956Z,2.13
2017-12-29T02:49:01.209Z,1.90
2017-12-29T02:51:27.382Z,3.00
2017-12-29T02:53:54.484Z,2.27
2017-12-29T02:56:20.705Z,2.03
2017-12-29T02:58:46.829Z,2.43
2017-12-29T03:01:13.052Z,2.33
2017-12-29T03:03:39.335Z,2.30
2017-12-29T03:06:05.491Z,2.63
2017-12-29T03:08:31.725Z,2.27
2017-12-29T03:10:57.919Z,2.10
2017-12-29T03:13:24.113Z,2.27
2017-12-29T03:15:51.012Z,1.87
2017-12-29T03:18:17.355Z,2.00
2017-12-29T03:20:43.745Z,2.30
2017-12-29T03:23:09.870Z,1.87
2017-12-29T03:25:36.023Z,2.30
2017-12-29T03:28:02.265Z,2.10
2017-12-29T03:30:28.582Z,2.30
2017-12-29T03:32:54.843Z,2.07
2017-12-29T03:35:21.896Z,2.20
2017-12-29T03:37:48.955Z,1.93
2017-12-29T03:40:15.179Z,2.40
2017-12-29T03:42:41.528Z,2.23
2017-12-29T03:45:07.741Z,1.73
2017-12-29T03:47:34.922Z,2.20
2017-12-29T03:50:01.156Z,2.13
2017-12-29T03:52:27.358Z,2.47
2017-12-29T03:54:53.477Z,1.97
2017-12-29T03:57:19.720Z,2.80
2017-12-29T03:59:46.057Z,2.20
2017-12-29T04:02:12.405Z,2.30
2017-12-29T04:04:38.642Z,2.03
2017-12-29T04:07:04.843Z,2.10
2017-12-29T04:09:30.968Z,2.40
2017-12-29T04:11:57.102Z,1.83
2017-12-29T04:14:24.053Z,1.90
2017-12-29T04:16:50.211Z,2.13
2017-12-29T04:19:16.392Z,2.37
2017-12-29T04:21:42.810Z,2.70
2017-12-29T04:24:09.041Z,2.03
2017-12-29T04:26:35.196Z,2.10
2017-12-29T04:29:01.318Z,1.97
2017-12-29T04:31:27.870Z,1.93
2017-12-29T04:33:54.782Z,1.80
2017-12-29T04:36:21.005Z,1.73
2017-12-29T04:38:47.144Z,1.73
2017-12-29T04:41:13.315Z,2.10
2017-12-29T04:43:39.556Z,1.93
2017-12-29T04:46:05.746Z,1.53
2017-12-29T04:48:32.665Z,1.80
2017-12-29T04:50:59.656Z,2.00
2017-12-29T04:53:25.827Z,1.90
2017-12-29T04:55:52.025Z,1.90
2017-12-29T04:58:18.637Z,1.93
2017-12-29T05:00:44.824Z,1.90
2017-12-29T05:03:11.234Z,1.40
2017-12-29T05:05:37.413Z,2.03
2017-12-29T05:08:03.623Z,2.00
2017-12-29T05:10:30.637Z,2.00
2017-12-29T05:12:57.595Z,2.03
2017-12-29T05:15:23.758Z,2.00
2017-12-29T05:17:49.939Z,2.03
2017-12-29T05:20:16.144Z,2.00
2017-12-29T05:22:42.308Z,1.87
2017-12-29T05:25:09.246Z,1.90
2017-12-29T05:27:36.250Z,2.13
2017-12-29T05:30:02.422Z,1.90
2017-12-29T05:32:29.370Z,1.67
2017-12-29T05:34:56.297Z,1.60
2017-12-29T05:37:22.404Z,2.30
2017-12-29T05:39:48.571Z,1.77
2017-12-29T05:42:15.416Z,2.20
2017-12-29T05:44:41.516Z,1.70
2017-12-29T05:47:07.668Z,1.90
2017-12-29T05:49:33.853Z,2.33
2017-12-29T05:52:00.139Z,1.70
2017-12-29T05:54:26.281Z,2.13
2017-12-29T05:56:52.434Z,1.83
2017-12-29T05:59:18.630Z,1.83
2017-12-29T06:01:44.806Z,1.70
2017-12-29T06:04:11.662Z,2.07
2017-12-29T06:06:37.850Z,1.90
2017-12-29T06:09:03.987Z,1.67
2017-12-29T06:11:30.174Z,1.57
2017-12-29T06:13:56.349Z,2.10
2017-12-29T06:16:23.280Z,1.80
2017-12-29T06:18:50.135Z,1.80
2017-12-29T06:21:17.169Z,1.90
2017-12-29T06:23:43.349Z,1.47
2017-12-29T06:26:09.484Z,1.53
2017-12-29T06:28:35.707Z,1.40
2017-12-29T06:31:01.859Z,2.10
2017-12-29T06:33:28.073Z,1.90
2017-12-29T06:35:54.316Z,1.93
2017-12-29T06:38:20.471Z,1.70
2017-12-29T06:40:46.669Z,1.73
2017-12-29T06:43:12.859Z,1.77
2017-12-29T06:45:39.144Z,2.43
2017-12-29T06:48:05.491Z,2.20
2017-12-29T06:50:31.846Z,1.37
2017-12-29T06:52:58.199Z,1.93
2017-12-29T06:55:24.308Z,1.60
2017-12-29T06:57:50.452Z,1.40
2017-12-29T07:00:17.470Z,1.63
2017-12-29T07:02:43.704Z,1.93
2017-12-29T07:05:10.029Z,1.57
2017-12-29T07:07:36.167Z,1.90
2017-12-29T07:10:02.338Z,2.27
2017-12-29T07:12:28.599Z,1.57
2017-12-29T07:14:54.893Z,1.57
2017-12-29T07:17:21.018Z,1.63
2017-12-29T07:19:47.204Z,1.90
2017-12-29T07:22:13.407Z,1.87
2017-12-29T07:24:39.589Z,2.20
2017-12-29T07:27:05.732Z,1.80
2017-12-29T07:29:31.904Z,1.73
2017-12-29T07:31:58.076Z,1.90
2017-12-29T07:34:24.277Z,1.63
2017-12-29T07:36:51.229Z,1.80
2017-12-29T07:39:18.168Z,1.33
2017-12-29T07:41:45.114Z,2.03
2017-12-29T07:44:12.039Z,2.07
2017-12-29T07:46:38.240Z,2.70
2017-12-29T07:49:04.392Z,2.10
2017-12-29T07:51:30.604Z,2.30
2017-12-29T07:53:56.806Z,2.17
2017-12-29T07:56:22.981Z,2.33
2017-12-29T07:58:49.984Z,1.67
2017-12-29T08:01:16.181Z,2.30
2017-12-29T08:03:42.789Z,2.00
2017-12-29T08:06:09.779Z,1.93
2017-12-29T08:08:35.958Z,2.40
2017-12-29T08:11:02.891Z,2.13
2017-12-29T08:13:29.098Z,2.37
2017-12-29T08:15:55.379Z,2.30
2017-12-29T08:18:21.508Z,2.60
2017-12-29T08:20:47.697Z,2.13
2017-12-29T08:23:13.850Z,2.60
2017-12-29T08:25:40.017Z,2.00
2017-12-29T08:28:06.451Z,2.27
2017-12-29T08:30:33.001Z,2.00
2017-12-29T08:33:00.138Z,2.17
2017-12-29T08:35:26.446Z,2.57
2017-12-29T08:37:52.672Z,2.30
2017-12-29T08:40:18.771Z,3.10
2017-12-29T08:42:44.911Z,2.20
2017-12-29T08:45:11.165Z,2.07
2017-12-29T08:47:37.462Z,1.83
2017-12-29T08:50:03.823Z,2.07
2017-12-29T08:52:29.945Z,1.90
2017-12-29T08:54:56.116Z,2.20
2017-12-29T08:57:22.626Z,2.20
2017-12-29T08:59:50.391Z,2.90
2017-12-29T09:02:17.336Z,2.57
2017-12-29T09:04:44.375Z,2.30
2017-12-29T09:07:11.325Z,3.50
2017-12-29T09:09:38.030Z,2.23
2017-12-29T09:12:04.208Z,2.20
2017-12-29T09:14:31.169Z,1.80
2017-12-29T09:16:57.417Z,2.07
2017-12-29T09:19:23.605Z,2.20
2017-12-29T09:21:50.555Z,2.03
2017-12-29T09:24:16.858Z,1.80
2017-12-29T09:26:43.200Z,2.60
2017-12-29T09:29:09.458Z,2.20
2017-12-29T09:31:35.830Z,2.57
2017-12-29T09:34:02.047Z,2.27
2017-12-29T09:36:28.254Z,1.87
2017-12-29T09:38:55.242Z,1.93
2017-12-29T09:41:21.474Z,2.10
2017-12-29T09:43:48.582Z,1.73
2017-12-29T09:46:14.810Z,1.90
2017-12-29T09:48:41.080Z,1.80
2017-12-29T09:51:08.119Z,1.77
2017-12-29T09:53:35.377Z,2.10
2017-12-29T09:56:02.266Z,1.53
2017-12-29T09:58:28.496Z,1.67
2017-12-29T10:00:54.637Z,1.87
2017-12-29T10:03:20.818Z,1.93
2017-12-29T10:05:46.962Z,1.87
2017-12-29T10:08:13.239Z,1.87
2017-12-29T10:10:40.198Z,1.70
2017-12-29T10:13:07.141Z,1.60
2017-12-29T10:15:34.157Z,1.70
2017-12-29T10:18:00.290Z,2.03
2017-12-29T10:20:26.519Z,2.17
2017-12-29T10:22:53.554Z,1.67
2017-12-29T10:25:19.766Z,1.57
2017-12-29T10:27:46.096Z,1.70
2017-12-29T10:30:12.255Z,1.70
2017-12-29T10:32:39.342Z,1.60
2017-12-29T10:35:05.576Z,1.83
2017-12-29T10:37:31.880Z,1.80
2017-12-29T10:39:58.121Z,1.60
2017-12-29T10:42:24.233Z,1.67
2017-12-29T10:44:50.380Z,1.60
2017-12-29T10:47:16.603Z,1.67
2017-12-29T10:49:42.932Z,2.00
2017-12-29T10:52:09.300Z,1.83
2017-12-29T10:54:35.574Z,2.20
2017-12-29T10:57:01.914Z,1.60
2017-12-29T10:59:28.134Z,2.20
2017-12-29T11:01:54.719Z,1.73
2017-12-29T11:04:20.931Z,2.00
2017-12-29T11:06:47.266Z,1.83
2017-12-29T11:09:13.535Z,1.73
2017-12-29T11:11:39.748Z,1.80
2017-12-29T11:14:06.923Z,1.80
2017-12-29T11:16:33.145Z,1.63
2017-12-29T11:18:59.309Z,1.53
2017-12-29T11:21:25.621Z,1.90
2017-12-29T11:23:51.810Z,2.00
2017-12-29T11:26:17.961Z,1.53
2017-12-29T11:28:44.060Z,1.80
2017-12-29T11:31:11.046Z,1.57
2017-12-29T11:33:37.380Z,1.90
2017-12-29T11:36:03.600Z,1.97
2017-12-29T11:38:29.753Z,2.23
2017-12-29T11:40:55.983Z,2.13
2017-12-29T11:43:22.514Z,2.20
2017-12-29T11:45:48.804Z,2.20
2017-12-29T11:48:15.086Z,2.50
2017-12-29T11:50:42.182Z,2.27
2017-12-29T11:53:08.455Z,2.00
2017-12-29T11:55:34.692Z,2.00
2017-12-29T11:58:01.653Z,2.23
2017-12-29T12:00:27.887Z,2.00
2017-12-29T12:02:54.164Z,2.23
2017-12-29T12:05:20.450Z,1.93
2017-12-29T12:07:46.617Z,1.63
2017-12-29T12:10:13.016Z,2.40
2017-12-29T12:12:39.459Z,2.20
2017-12-29T12:15:05.849Z,1.67
2017-12-29T12:17:32.751Z,1.93
2017-12-29T12:19:59.150Z,2.00
2017-12-29T12:22:25.362Z,1.50
2017-12-29T12:24:51.672Z,2.20
2017-12-29T12:27:18.584Z,1.60
2017-12-29T12:29:44.849Z,2.33
2017-12-29T12:32:11.090Z,2.00
2017-12-29T12:34:37.350Z,2.13
2017-12-29T12:37:03.617Z,2.00
2017-12-29T12:39:30.544Z,1.90
2017-12-29T12:41:56.902Z,1.90
2017-12-29T12:44:23.787Z,1.50
2017-12-29T12:46:50.366Z,2.27
2017-12-29T12:49:17.334Z,1.90
2017-12-29T12:51:43.535Z,2.50
2017-12-29T12:54:10.498Z,2.07
2017-12-29T12:56:36.740Z,1.87
2017-12-29T12:59:03.148Z,2.20
2017-12-29T13:01:29.389Z,1.57
2017-12-29T13:03:55.710Z,2.17
2017-12-29T13:06:22.007Z,1.50
2017-12-29T13:08:49.085Z,2.23
2017-12-29T13:11:15.305Z,2.00
2017-12-29T13:13:42.335Z,2.10
2017-12-29T13:16:09.331Z,2.00
2017-12-29T13:18:35.613Z,1.33
2017-12-29T13:21:02.878Z,1.63
2017-12-29T13:23:29.045Z,1.87
2017-12-29T13:25:55.281Z,1.80
2017-12-29T13:28:21.665Z,1.80
2017-12-29T13:30:47.920Z,1.83
2017-12-29T13:33:14.123Z,2.00
2017-12-29T13:35:40.408Z,1.90
2017-12-29T13:38:06.805Z,2.00
2017-12-29T13:40:33.073Z,1.70
2017-12-29T13:42:59.304Z,1.70
2017-12-29T13:45:25.517Z,2.17
2017-12-29T13:47:52.478Z,1.63
2017-12-29T13:50:19.405Z,2.30
2017-12-29T13:52:45.675Z,1.50
2017-12-29T13:55:11.866Z,1.90
2017-12-29T13:57:39.106Z,1.90
2017-12-29T14:00:06.068Z,1.43
2017-12-29T14:02:33.213Z,2.07
2017-12-29T14:04:59.615Z,1.73
2017-12-29T14:07:25.847Z,1.70
2017-12-29T14:09:52.058Z,1.93
2017-12-29T14:12:18.301Z,1.73
2017-12-29T14:14:44.730Z,2.00
2017-12-29T14:17:11.298Z,2.30
2017-12-29T14:19:38.340Z,1.40
2017-12-29T14:22:05.449Z,1.80
2017-12-29T14:24:31.626Z,2.07
2017-12-29T14:26:57.833Z,2.23
2017-12-29T14:29:24.036Z,2.97
2017-12-29T14:31:50.343Z,2.43
2017-12-29T14:34:16.491Z,1.60
2017-12-29T14:36:42.655Z,2.07
2017-12-29T14:39:09.592Z,2.07
2017-12-29T14:41:36.697Z,2.53
2017-12-29T14:44:02.830Z,2.03
2017-12-29T14:46:29.158Z,2.07
2017-12-29T14:48:55.471Z,3.37
2017-12-29T14:51:21.804Z,1.77
2017-12-29T14:53:48.083Z,1.73
2017-12-29T14:56:14.974Z,1.60
2017-12-29T14:58:41.332Z,2.17
2017-12-29T15:01:08.272Z,1.70
2017-12-29T15:03:36.046Z,2.63
2017-12-29T15:06:02.977Z,1.70
2017-12-29T15:08:30.643Z,1.67
2017-12-29T15:10:56.858Z,2.10
2017-12-29T15:13:23.024Z,1.67
2017-12-29T15:15:49.247Z,1.77
2017-12-29T15:18:16.216Z,1.60
2017-12-29T15:20:42.399Z,1.60
2017-12-29T15:23:09.322Z,2.33
2017-12-29T15:25:35.585Z,3.40
2017-12-29T15:28:02.467Z,4.90
2017-12-29T15:30:28.744Z,6.10
2017-12-29T15:32:55.657Z,4.00
2017-12-29T15:35:21.816Z,3.13
2017-12-29T15:37:48.768Z,3.73
2017-12-29T15:40:15.682Z,1.60
2017-12-29T15:42:41.900Z,1.80
2017-12-29T15:45:08.110Z,1.40
2017-12-29T15:47:34.280Z,3.10
2017-12-29T15:50:01.351Z,2.50
2017-12-29T15:52:27.595Z,1.20
2017-12-29T15:54:53.750Z,1.40
2017-12-29T15:57:19.982Z,1.30
2017-12-29T15:59:46.159Z,1.00
2017-12-29T16:02:17.390Z,1.20
2017-12-29T16:04:43.675Z,2.00
2017-12-29T16:07:09.862Z,1.57
2017-12-29T16:09:36.056Z,1.50
2017-12-29T16:12:03.964Z,1.43
2017-12-29T16:14:30.183Z,2.10
2017-12-29T16:16:56.389Z,2.70
2017-12-29T16:19:22.589Z,3.67
2017-12-29T16:21:48.865Z,1.60
2017-12-29T16:24:16.038Z,1.33
2017-12-29T16:26:42.214Z,1.70
2017-12-29T16:29:08.338Z,1.73
2017-12-29T16:31:34.511Z,2.10
2017-12-29T16:34:00.635Z,2.10
2017-12-29T16:36:26.960Z,2.20
2017-12-29T16:38:53.219Z,2.83
2017-12-29T16:41:19.367Z,2.20
2017-12-29T16:43:45.736Z,2.20
2017-12-29T16:46:12.709Z,1.83
2017-12-29T16:48:38.933Z,2.03
2017-12-29T16:51:05.161Z,2.07
2017-12-29T16:53:31.583Z,2.10
2017-12-29T16:55:57.856Z,1.80
2017-12-29T16:58:24.032Z,1.53
2017-12-29T17:00:50.355Z,1.80
2017-12-29T17:03:16.508Z,1.77
2017-12-29T17:05:42.635Z,2.23
2017-12-29T17:08:09.549Z,1.73
2017-12-29T17:10:35.726Z,2.07
2017-12-29T17:13:01.990Z,1.80
2017-12-29T17:15:28.168Z,2.07
2017-12-29T17:17:55.169Z,1.70
2017-12-29T17:20:21.450Z,1.60
2017-12-29T17:22:47.591Z,2.47
2017-12-29T17:25:13.725Z,2.50
2017-12-29T17:27:39.923Z,2.00
2017-12-29T17:30:06.939Z,1.80
2017-12-29T17:32:33.094Z,2.17
2017-12-29T17:34:59.225Z,1.90
2017-12-29T17:37:25.413Z,2.00
2017-12-29T17:39:51.574Z,2.07
2017-12-29T17:42:17.961Z,1.97
2017-12-29T17:44:44.165Z,1.70
2017-12-29T17:47:10.518Z,1.80
2017-12-29T17:49:36.698Z,1.60
2017-12-29T17:52:03.436Z,2.00
2017-12-29T17:54:29.701Z,2.20
2017-12-29T17:56:55.895Z,2.00
2017-12-29T17:59:22.177Z,1.80
2017-12-29T18:01:49.224Z,1.40
2017-12-29T18:04:15.413Z,1.53
2017-12-29T18:06:41.726Z,2.10
2017-12-29T18:09:08.046Z,1.60
2017-12-29T18:11:34.212Z,1.70
2017-12-29T18:14:00.508Z,1.77
2017-12-29T18:16:26.662Z,1.47
2017-12-29T18:18:52.867Z,2.20
2017-12-29T18:21:19.018Z,2.20
2017-12-29T18:23:45.187Z,2.07
2017-12-29T18:26:11.495Z,1.87
2017-12-29T18:28:38.415Z,2.07
2017-12-29T18:31:04.830Z,2.30
2017-12-29T18:33:31.333Z,3.30
2017-12-29T18:35:57.591Z,2.43
2017-12-29T18:38:23.761Z,2.50
2017-12-29T18:40:50.672Z,2.10
2017-12-29T18:43:16.932Z,1.83
2017-12-29T18:45:44.066Z,2.53
2017-12-29T18:48:10.268Z,3.73
2017-12-29T18:50:36.535Z,2.70
2017-12-29T18:53:03.478Z,3.00
2017-12-29T18:55:29.637Z,2.50
2017-12-29T18:57:55.809Z,2.23
2017-12-29T19:00:21.946Z,2.80
2017-12-29T19:02:49.049Z,2.17
2017-12-29T19:05:15.213Z,2.60
2017-12-29T19:07:41.455Z,2.50
2017-12-29T19:10:08.357Z,2.50
2017-12-29T19:12:34.678Z,2.87
2017-12-29T19:15:00.863Z,2.97
2017-12-29T19:17:27.725Z,2.50
2017-12-29T19:19:53.951Z,2.70
2017-12-29T19:22:20.282Z,2.60
2017-12-29T19:24:47.499Z,2.70
2017-12-29T19:27:13.813Z,3.10
2017-12-29T19:29:40.938Z,4.40
2017-12-29T19:32:07.273Z,3.20
2017-12-29T19:34:33.451Z,2.77
2017-12-29T19:36:59.658Z,3.00
2017-12-29T19:39:26.600Z,2.90
2017-12-29T19:41:52.918Z,2.70
2017-12-29T19:44:19.829Z,2.50
2017-12-29T19:46:46.276Z,2.50
2017-12-29T19:49:13.219Z,2.50
2017-12-29T19:51:39.438Z,2.47
2017-12-29T19:54:05.846Z,2.40
2017-12-29T19:56:32.094Z,3.00
2017-12-29T19:58:58.306Z,2.73
2017-12-29T20:01:24.410Z,2.30
2017-12-29T20:03:50.714Z,2.07
2017-12-29T20:06:16.935Z,1.90
2017-12-29T20:08:43.976Z,2.33
2017-12-29T20:11:10.968Z,2.00
2017-12-29T20:13:37.219Z,2.10
2017-12-29T20:16:03.396Z,2.67
2017-12-29T20:18:29.570Z,2.07
2017-12-29T20:20:55.826Z,2.23
2017-12-29T20:23:22.816Z,2.40
2017-12-29T20:25:49.212Z,1.83
2017-12-29T20:28:15.327Z,2.10
2017-12-29T20:30:42.227Z,2.50
2017-12-29T20:33:08.559Z,2.47
2017-12-29T20:35:34.724Z,2.27
2017-12-29T20:38:01.680Z,2.30
2017-12-29T20:40:27.906Z,2.00
2017-12-29T20:42:54.560Z,2.13
2017-12-29T20:45:20.860Z,2.00
2017-12-29T20:47:47.258Z,1.80
2017-12-29T20:50:14.697Z,2.20
2017-12-29T20:52:41.068Z,1.97
2017-12-29T20:55:07.314Z,1.93
2017-12-29T20:57:33.588Z,2.53
2017-12-29T20:59:59.773Z,1.80
2017-12-29T21:02:25.992Z,2.00
2017-12-29T21:04:52.273Z,2.17
2017-12-29T21:07:18.537Z,2.40
2017-12-29T21:09:45.494Z,2.53
2017-12-29T21:12:11.666Z,3.43
2017-12-29T21:14:37.848Z,2.70
2017-12-29T21:17:03.991Z,2.67
2017-12-29T21:19:30.161Z,3.10
2017-12-29T21:21:57.115Z,2.23
2017-12-29T21:24:24.138Z,2.70
2017-12-29T21:26:51.065Z,3.23
2017-12-29T21:29:17.227Z,2.37
2017-12-29T21:31:44.127Z,3.33
2017-12-29T21:34:10.285Z,2.67
2017-12-29T21:36:37.411Z,2.60
2017-12-29T21:39:03.614Z,2.00
2017-12-29T21:41:29.983Z,2.60
2017-12-29T21:43:56.978Z,2.43
2017-12-29T21:46:23.253Z,2.60
2017-12-29T21:48:50.871Z,2.27
2017-12-29T21:51:17.301Z,2.37
2017-12-29T21:53:43.485Z,1.80
2017-12-29T21:56:10.457Z,1.90
2017-12-29T21:58:36.670Z,1.53
2017-12-29T22:01:02.837Z,1.60
2017-12-29T22:03:29.842Z,2.10
2017-12-29T22:05:56.763Z,1.43
2017-12-29T22:08:23.689Z,1.30
2017-12-29T22:10:49.885Z,1.80
2017-12-29T22:13:16.156Z,1.67
2017-12-29T22:15:42.316Z,1.23
2017-12-29T22:18:08.485Z,1.00
2017-12-29T22:20:34.759Z,0.70
2017-12-29T22:23:00.948Z,1.10
2017-12-29T22:25:27.184Z,0.60
2017-12-29T22:27:53.469Z,1.00
2017-12-29T22:30:20.006Z,0.80
2017-12-29T22:32:46.271Z,0.93
2017-12-29T22:35:12.514Z,1.17
2017-12-29T22:37:39.507Z,1.67
2017-12-29T22:40:05.703Z,1.20
2017-12-29T22:42:32.114Z,2.77
2017-12-29T22:44:58.995Z,1.23
2017-12-29T22:47:25.278Z,1.20
2017-12-29T22:49:51.979Z,3.10
2017-12-29T22:52:19.540Z,2.40
2017-12-29T22:54:45.981Z,1.93
2017-12-29T22:57:12.341Z,1.20
2017-12-29T22:59:39.367Z,1.07
2017-12-29T23:02:05.614Z,1.07
2017-12-29T23:04:32.955Z,1.00
2017-12-29T23:06:59.182Z,1.70
2017-12-29T23:09:25.798Z,1.57
2017-12-29T23:11:52.058Z,1.37
2017-12-29T23:14:18.991Z,1.40
2017-12-29T23:16:45.496Z,1.00
2017-12-29T23:19:11.757Z,1.30
2017-12-29T23:21:39.374Z,0.93
2017-12-29T23:24:05.530Z,1.17
2017-12-29T23:26:32.650Z,0.90
2017-12-29T23:28:58.788Z,0.97
2017-12-29T23:31:25.105Z,1.00
2017-12-29T23:33:51.256Z,0.97
2017-12-29T23:36:18.150Z,0.90
2017-12-29T23:38:44.839Z,0.87
2017-12-29T23:41:11.723Z,0.77
2017-12-29T23:43:37.928Z,0.90
2017-12-29T23:46:04.920Z,1.20
2017-12-29T23:48:31.383Z,1.10
2017-12-29T23:50:57.682Z,0.93
2017-12-29T23:53:23.943Z,1.47
2017-12-29T23:55:51.053Z,2.00
2017-12-29T23:58:17.648Z,1.13
